sensor_id;sensor_type;location;lat;lon;timestamp;P1;durP1;ratioP1;P2;durP2;ratioP2
13866;SDS011;7003;46.982;15.248;2023-03-01T00:00:04;7.87;;;7.07;;
13866;SDS011;7003;46.982;15.248;2023-03-01T00:02:35;9.57;;;7.83;;
13866;SDS011;7003;46.982;15.248;2023-03-01T00:05:02;12.90;;;8.97;;
13866;SDS011;7003;46.982;15.248;2023-03-01T00:07:30;9.20;;;7.60;;
13866;SDS011;7003;46.982;15.248;2023-03-01T00:09:58;12.93;;;8.73;;
13866;SDS011;7003;46.982;15.248;2023-03-01T00:12:25;9.40;;;7.00;;
13866;SDS011;7003;46.982;15.248;2023-03-01T00:14:56;12.70;;;7.93;;
13866;SDS011;7003;46.982;15.248;2023-03-01T00:17:25;11.00;;;8.27;;
13866;SDS011;7003;46.982;15.248;2023-03-01T00:19:57;14.87;;;8.23;;
13866;SDS011;7003;46.982;15.248;2023-03-01T00:22:26;9.27;;;7.47;;
13866;SDS011;7003;46.982;15.248;2023-03-01T00:24:54;12.90;;;8.33;;
13866;SDS011;7003;46.982;15.248;2023-03-01T00:27:22;15.97;;;9.23;;
13866;SDS011;7003;46.982;15.248;2023-03-01T00:29:51;13.80;;;7.20;;
13866;SDS011;7003;46.982;15.248;2023-03-01T00:32:21;10.43;;;7.20;;
13866;SDS011;7003;46.982;15.248;2023-03-01T00:34:52;11.07;;;8.17;;
13866;SDS011;7003;46.982;15.248;2023-03-01T00:37:24;13.53;;;8.63;;
13866;SDS011;7003;46.982;15.248;2023-03-01T00:39:52;7.20;;;6.43;;
13866;SDS011;7003;46.982;15.248;2023-03-01T00:42:20;10.20;;;7.97;;
13866;SDS011;7003;46.982;15.248;2023-03-01T00:44:50;10.00;;;5.17;;
13866;SDS011;7003;46.982;15.248;2023-03-01T00:47:19;10.80;;;6.77;;
13866;SDS011;7003;46.982;15.248;2023-03-01T00:49:49;13.83;;;6.53;;
13866;SDS011;7003;46.982;15.248;2023-03-01T00:52:21;8.00;;;5.67;;
13866;SDS011;7003;46.982;15.248;2023-03-01T00:54:48;9.93;;;8.43;;
13866;SDS011;7003;46.982;15.248;2023-03-01T00:57:20;7.60;;;5.90;;
13866;SDS011;7003;46.982;15.248;2023-03-01T00:59:49;14.73;;;7.20;;
13866;SDS011;7003;46.982;15.248;2023-03-01T01:02:17;8.47;;;7.07;;
13866;SDS011;7003;46.982;15.248;2023-03-01T01:04:50;9.00;;;6.47;;
13866;SDS011;7003;46.982;15.248;2023-03-01T01:07:38;6.27;;;5.67;;
13866;SDS011;7003;46.982;15.248;2023-03-01T01:10:06;10.57;;;6.90;;
13866;SDS011;7003;46.982;15.248;2023-03-01T01:12:50;7.77;;;6.77;;
13866;SDS011;7003;46.982;15.248;2023-03-01T01:15:24;10.80;;;7.37;;
13866;SDS011;7003;46.982;15.248;2023-03-01T01:17:56;10.43;;;7.70;;
13866;SDS011;7003;46.982;15.248;2023-03-01T01:20:32;8.33;;;6.07;;
13866;SDS011;7003;46.982;15.248;2023-03-01T01:23:10;7.57;;;4.63;;
13866;SDS011;7003;46.982;15.248;2023-03-01T01:25:41;8.90;;;6.17;;
13866;SDS011;7003;46.982;15.248;2023-03-01T01:28:27;7.67;;;6.10;;
13866;SDS011;7003;46.982;15.248;2023-03-01T01:31:14;11.73;;;7.03;;
13866;SDS011;7003;46.982;15.248;2023-03-01T01:33:46;10.60;;;6.13;;
13866;SDS011;7003;46.982;15.248;2023-03-01T01:36:17;7.47;;;6.67;;
13866;SDS011;7003;46.982;15.248;2023-03-01T01:39:00;9.70;;;6.60;;
13866;SDS011;7003;46.982;15.248;2023-03-01T01:41:47;9.47;;;6.50;;
13866;SDS011;7003;46.982;15.248;2023-03-01T01:44:26;7.90;;;5.27;;
13866;SDS011;7003;46.982;15.248;2023-03-01T01:47:07;14.47;;;6.97;;
13866;SDS011;7003;46.982;15.248;2023-03-01T01:49:47;11.27;;;7.07;;
13866;SDS011;7003;46.982;15.248;2023-03-01T01:52:30;9.57;;;5.57;;
13866;SDS011;7003;46.982;15.248;2023-03-01T01:55:22;7.70;;;6.10;;
13866;SDS011;7003;46.982;15.248;2023-03-01T01:58:12;8.53;;;6.60;;
13866;SDS011;7003;46.982;15.248;2023-03-01T02:01:02;7.23;;;5.73;;
13866;SDS011;7003;46.982;15.248;2023-03-01T02:03:32;12.07;;;6.53;;
13866;SDS011;7003;46.982;15.248;2023-03-01T02:06:24;7.03;;;5.63;;
13866;SDS011;7003;46.982;15.248;2023-03-01T02:08:55;10.10;;;7.37;;
13866;SDS011;7003;46.982;15.248;2023-03-01T02:11:31;7.13;;;4.83;;
13866;SDS011;7003;46.982;15.248;2023-03-01T02:13:59;8.13;;;6.07;;
13866;SDS011;7003;46.982;15.248;2023-03-01T02:16:29;12.03;;;6.73;;
13866;SDS011;7003;46.982;15.248;2023-03-01T02:18:58;12.33;;;5.50;;
13866;SDS011;7003;46.982;15.248;2023-03-01T02:21:32;6.20;;;4.80;;
13866;SDS011;7003;46.982;15.248;2023-03-01T02:24:15;10.17;;;7.67;;
13866;SDS011;7003;46.982;15.248;2023-03-01T02:26:56;10.60;;;6.77;;
13866;SDS011;7003;46.982;15.248;2023-03-01T02:29:27;11.70;;;6.33;;
13866;SDS011;7003;46.982;15.248;2023-03-01T02:32:00;13.40;;;6.80;;
13866;SDS011;7003;46.982;15.248;2023-03-01T02:34:31;10.77;;;5.80;;
13866;SDS011;7003;46.982;15.248;2023-03-01T02:37:00;14.43;;;8.17;;
13866;SDS011;7003;46.982;15.248;2023-03-01T02:39:33;8.50;;;6.30;;
13866;SDS011;7003;46.982;15.248;2023-03-01T02:42:10;9.27;;;6.10;;
13866;SDS011;7003;46.982;15.248;2023-03-01T02:44:44;9.47;;;6.37;;
13866;SDS011;7003;46.982;15.248;2023-03-01T02:47:14;8.97;;;5.53;;
13866;SDS011;7003;46.982;15.248;2023-03-01T02:49:42;7.43;;;5.13;;
13866;SDS011;7003;46.982;15.248;2023-03-01T02:52:17;7.63;;;5.87;;
13866;SDS011;7003;46.982;15.248;2023-03-01T02:54:55;7.97;;;6.60;;
13866;SDS011;7003;46.982;15.248;2023-03-01T02:57:32;12.17;;;8.10;;
13866;SDS011;7003;46.982;15.248;2023-03-01T03:00:09;7.07;;;6.37;;
13866;SDS011;7003;46.982;15.248;2023-03-01T03:02:49;11.57;;;6.90;;
13866;SDS011;7003;46.982;15.248;2023-03-01T03:05:19;7.30;;;6.53;;
13866;SDS011;7003;46.982;15.248;2023-03-01T03:08:08;10.60;;;6.40;;
13866;SDS011;7003;46.982;15.248;2023-03-01T03:10:40;7.30;;;4.80;;
13866;SDS011;7003;46.982;15.248;2023-03-01T03:13:10;6.80;;;5.03;;
13866;SDS011;7003;46.982;15.248;2023-03-01T03:16:00;9.77;;;6.93;;
13866;SDS011;7003;46.982;15.248;2023-03-01T03:18:37;8.73;;;6.30;;
13866;SDS011;7003;46.982;15.248;2023-03-01T03:21:07;9.20;;;6.53;;
13866;SDS011;7003;46.982;15.248;2023-03-01T03:23:38;9.40;;;5.77;;
13866;SDS011;7003;46.982;15.248;2023-03-01T03:26:17;10.30;;;7.37;;
13866;SDS011;7003;46.982;15.248;2023-03-01T03:28:58;11.90;;;7.03;;
13866;SDS011;7003;46.982;15.248;2023-03-01T03:31:36;9.63;;;5.07;;
13866;SDS011;7003;46.982;15.248;2023-03-01T03:34:05;8.83;;;5.30;;
13866;SDS011;7003;46.982;15.248;2023-03-01T03:36:40;7.43;;;6.70;;
13866;SDS011;7003;46.982;15.248;2023-03-01T03:39:13;6.33;;;5.60;;
13866;SDS011;7003;46.982;15.248;2023-03-01T03:42:00;9.17;;;5.47;;
13866;SDS011;7003;46.982;15.248;2023-03-01T03:44:38;11.53;;;6.80;;
13866;SDS011;7003;46.982;15.248;2023-03-01T03:47:10;11.43;;;7.70;;
13866;SDS011;7003;46.982;15.248;2023-03-01T03:49:37;16.33;;;9.20;;
13866;SDS011;7003;46.982;15.248;2023-03-01T03:52:19;9.57;;;6.10;;
13866;SDS011;7003;46.982;15.248;2023-03-01T03:54:50;8.77;;;5.80;;
13866;SDS011;7003;46.982;15.248;2023-03-01T03:57:18;7.80;;;5.80;;
13866;SDS011;7003;46.982;15.248;2023-03-01T03:59:49;7.43;;;4.87;;
13866;SDS011;7003;46.982;15.248;2023-03-01T04:02:21;5.83;;;5.23;;
13866;SDS011;7003;46.982;15.248;2023-03-01T04:04:48;7.73;;;4.50;;
13866;SDS011;7003;46.982;15.248;2023-03-01T04:07:19;6.90;;;5.27;;
13866;SDS011;7003;46.982;15.248;2023-03-01T04:09:48;15.03;;;5.57;;
13866;SDS011;7003;46.982;15.248;2023-03-01T04:12:19;6.70;;;5.03;;
13866;SDS011;7003;46.982;15.248;2023-03-01T04:14:48;8.13;;;4.70;;
13866;SDS011;7003;46.982;15.248;2023-03-01T04:17:15;6.67;;;5.03;;
13866;SDS011;7003;46.982;15.248;2023-03-01T04:19:46;8.33;;;4.70;;
13866;SDS011;7003;46.982;15.248;2023-03-01T04:22:14;8.27;;;5.43;;
13866;SDS011;7003;46.982;15.248;2023-03-01T04:24:46;7.93;;;5.70;;
13866;SDS011;7003;46.982;15.248;2023-03-01T04:27:16;9.27;;;5.20;;
13866;SDS011;7003;46.982;15.248;2023-03-01T04:29:43;6.60;;;4.93;;
13866;SDS011;7003;46.982;15.248;2023-03-01T04:32:13;5.40;;;4.63;;
13866;SDS011;7003;46.982;15.248;2023-03-01T04:34:49;11.60;;;6.00;;
13866;SDS011;7003;46.982;15.248;2023-03-01T04:37:16;8.57;;;5.23;;
13866;SDS011;7003;46.982;15.248;2023-03-01T04:39:43;10.00;;;5.20;;
13866;SDS011;7003;46.982;15.248;2023-03-01T04:42:12;8.87;;;6.63;;
13866;SDS011;7003;46.982;15.248;2023-03-01T04:44:40;6.80;;;4.97;;
13866;SDS011;7003;46.982;15.248;2023-03-01T04:47:07;7.53;;;5.03;;
13866;SDS011;7003;46.982;15.248;2023-03-01T04:49:37;13.67;;;5.87;;
13866;SDS011;7003;46.982;15.248;2023-03-01T04:52:06;7.27;;;4.53;;
13866;SDS011;7003;46.982;15.248;2023-03-01T04:54:35;6.83;;;4.33;;
13866;SDS011;7003;46.982;15.248;2023-03-01T04:57:04;6.23;;;5.10;;
13866;SDS011;7003;46.982;15.248;2023-03-01T04:59:36;11.77;;;6.47;;
13866;SDS011;7003;46.982;15.248;2023-03-01T05:02:05;8.77;;;6.67;;
13866;SDS011;7003;46.982;15.248;2023-03-01T05:04:33;8.60;;;6.00;;
13866;SDS011;7003;46.982;15.248;2023-03-01T05:07:02;10.70;;;6.33;;
13866;SDS011;7003;46.982;15.248;2023-03-01T05:09:33;13.37;;;6.53;;
13866;SDS011;7003;46.982;15.248;2023-03-01T05:12:00;12.30;;;6.77;;
13866;SDS011;7003;46.982;15.248;2023-03-01T05:14:27;7.57;;;6.63;;
13866;SDS011;7003;46.982;15.248;2023-03-01T05:16:58;7.73;;;5.47;;
13866;SDS011;7003;46.982;15.248;2023-03-01T05:19:32;6.20;;;4.57;;
13866;SDS011;7003;46.982;15.248;2023-03-01T05:22:00;7.00;;;5.70;;
13866;SDS011;7003;46.982;15.248;2023-03-01T05:24:35;8.33;;;5.27;;
13866;SDS011;7003;46.982;15.248;2023-03-01T05:27:04;8.30;;;6.87;;
13866;SDS011;7003;46.982;15.248;2023-03-01T05:29:32;8.23;;;4.97;;
13866;SDS011;7003;46.982;15.248;2023-03-01T05:32:00;9.23;;;7.03;;
13866;SDS011;7003;46.982;15.248;2023-03-01T05:34:29;9.93;;;4.83;;
13866;SDS011;7003;46.982;15.248;2023-03-01T05:37:09;7.57;;;6.27;;
13866;SDS011;7003;46.982;15.248;2023-03-01T05:39:39;9.40;;;6.97;;
13866;SDS011;7003;46.982;15.248;2023-03-01T05:42:09;9.13;;;6.57;;
13866;SDS011;7003;46.982;15.248;2023-03-01T05:44:38;8.23;;;5.47;;
13866;SDS011;7003;46.982;15.248;2023-03-01T05:47:06;9.10;;;5.67;;
13866;SDS011;7003;46.982;15.248;2023-03-01T05:49:35;9.40;;;6.27;;
13866;SDS011;7003;46.982;15.248;2023-03-01T05:52:04;8.53;;;6.27;;
13866;SDS011;7003;46.982;15.248;2023-03-01T05:54:32;9.67;;;6.47;;
13866;SDS011;7003;46.982;15.248;2023-03-01T05:57:03;9.57;;;6.73;;
13866;SDS011;7003;46.982;15.248;2023-03-01T05:59:32;8.40;;;6.10;;
13866;SDS011;7003;46.982;15.248;2023-03-01T06:02:01;11.40;;;7.07;;
13866;SDS011;7003;46.982;15.248;2023-03-01T06:04:29;9.23;;;6.50;;
13866;SDS011;7003;46.982;15.248;2023-03-01T06:06:57;7.03;;;6.23;;
13866;SDS011;7003;46.982;15.248;2023-03-01T06:09:28;7.80;;;7.03;;
13866;SDS011;7003;46.982;15.248;2023-03-01T06:11:56;9.33;;;5.90;;
13866;SDS011;7003;46.982;15.248;2023-03-01T06:14:25;10.13;;;6.97;;
13866;SDS011;7003;46.982;15.248;2023-03-01T06:16:54;13.47;;;5.47;;
13866;SDS011;7003;46.982;15.248;2023-03-01T06:19:22;9.93;;;6.90;;
13866;SDS011;7003;46.982;15.248;2023-03-01T06:21:51;9.07;;;6.57;;
13866;SDS011;7003;46.982;15.248;2023-03-01T06:24:21;7.93;;;5.83;;
13866;SDS011;7003;46.982;15.248;2023-03-01T06:26:50;7.50;;;6.03;;
13866;SDS011;7003;46.982;15.248;2023-03-01T06:29:20;10.03;;;6.57;;
13866;SDS011;7003;46.982;15.248;2023-03-01T06:31:49;6.20;;;4.63;;
13866;SDS011;7003;46.982;15.248;2023-03-01T06:34:21;6.43;;;5.03;;
13866;SDS011;7003;46.982;15.248;2023-03-01T06:36:52;6.17;;;5.17;;
13866;SDS011;7003;46.982;15.248;2023-03-01T06:39:20;8.27;;;5.20;;
13866;SDS011;7003;46.982;15.248;2023-03-01T06:41:49;6.50;;;4.93;;
13866;SDS011;7003;46.982;15.248;2023-03-01T06:44:21;7.20;;;5.87;;
13866;SDS011;7003;46.982;15.248;2023-03-01T06:46:53;18.20;;;5.27;;
13866;SDS011;7003;46.982;15.248;2023-03-01T06:49:24;7.60;;;5.53;;
13866;SDS011;7003;46.982;15.248;2023-03-01T06:51:52;8.23;;;6.63;;
13866;SDS011;7003;46.982;15.248;2023-03-01T06:54:21;6.57;;;5.23;;
13866;SDS011;7003;46.982;15.248;2023-03-01T06:56:50;10.20;;;7.00;;
13866;SDS011;7003;46.982;15.248;2023-03-01T06:59:18;9.43;;;6.07;;
13866;SDS011;7003;46.982;15.248;2023-03-01T07:01:46;8.90;;;6.63;;
13866;SDS011;7003;46.982;15.248;2023-03-01T07:04:17;22.47;;;6.73;;
13866;SDS011;7003;46.982;15.248;2023-03-01T07:06:45;9.50;;;5.77;;
13866;SDS011;7003;46.982;15.248;2023-03-01T07:09:20;12.70;;;8.60;;
13866;SDS011;7003;46.982;15.248;2023-03-01T07:11:49;14.67;;;8.23;;
13866;SDS011;7003;46.982;15.248;2023-03-01T07:14:18;7.43;;;6.57;;
13866;SDS011;7003;46.982;15.248;2023-03-01T07:16:49;12.60;;;7.80;;
13866;SDS011;7003;46.982;15.248;2023-03-01T07:19:19;11.20;;;5.80;;
13866;SDS011;7003;46.982;15.248;2023-03-01T07:21:48;12.33;;;8.30;;
13866;SDS011;7003;46.982;15.248;2023-03-01T07:24:19;15.00;;;9.97;;
13866;SDS011;7003;46.982;15.248;2023-03-01T07:26:50;18.07;;;12.70;;
13866;SDS011;7003;46.982;15.248;2023-03-01T07:29:19;28.10;;;14.63;;
13866;SDS011;7003;46.982;15.248;2023-03-01T07:31:47;31.10;;;17.73;;
13866;SDS011;7003;46.982;15.248;2023-03-01T07:34:16;36.07;;;20.20;;
13866;SDS011;7003;46.982;15.248;2023-03-01T07:36:47;34.57;;;20.43;;
13866;SDS011;7003;46.982;15.248;2023-03-01T07:39:16;36.60;;;18.83;;
13866;SDS011;7003;46.982;15.248;2023-03-01T07:41:44;25.73;;;12.77;;
13866;SDS011;7003;46.982;15.248;2023-03-01T07:44:17;18.03;;;12.17;;
13866;SDS011;7003;46.982;15.248;2023-03-01T07:46:47;19.33;;;10.87;;
13866;SDS011;7003;46.982;15.248;2023-03-01T07:49:16;17.43;;;10.17;;
13866;SDS011;7003;46.982;15.248;2023-03-01T07:51:48;14.07;;;8.03;;
13866;SDS011;7003;46.982;15.248;2023-03-01T07:54:16;10.37;;;8.13;;
13866;SDS011;7003;46.982;15.248;2023-03-01T07:56:47;9.40;;;7.60;;
13866;SDS011;7003;46.982;15.248;2023-03-01T07:59:16;13.67;;;9.57;;
13866;SDS011;7003;46.982;15.248;2023-03-01T08:01:45;13.43;;;7.73;;
13866;SDS011;7003;46.982;15.248;2023-03-01T08:04:13;14.00;;;9.37;;
13866;SDS011;7003;46.982;15.248;2023-03-01T08:06:42;14.43;;;10.00;;
13866;SDS011;7003;46.982;15.248;2023-03-01T08:09:13;13.17;;;9.63;;
13866;SDS011;7003;46.982;15.248;2023-03-01T08:11:41;11.40;;;7.73;;
13866;SDS011;7003;46.982;15.248;2023-03-01T08:14:10;13.57;;;8.83;;
13866;SDS011;7003;46.982;15.248;2023-03-01T08:16:39;12.13;;;8.57;;
13866;SDS011;7003;46.982;15.248;2023-03-01T08:19:09;13.30;;;10.20;;
13866;SDS011;7003;46.982;15.248;2023-03-01T08:21:41;11.83;;;7.87;;
13866;SDS011;7003;46.982;15.248;2023-03-01T08:24:09;13.50;;;9.17;;
13866;SDS011;7003;46.982;15.248;2023-03-01T08:26:41;16.53;;;8.80;;
13866;SDS011;7003;46.982;15.248;2023-03-01T08:29:11;15.10;;;8.30;;
13866;SDS011;7003;46.982;15.248;2023-03-01T08:31:40;11.50;;;8.07;;
13866;SDS011;7003;46.982;15.248;2023-03-01T08:34:10;14.03;;;8.53;;
13866;SDS011;7003;46.982;15.248;2023-03-01T08:36:41;16.97;;;8.83;;
13866;SDS011;7003;46.982;15.248;2023-03-01T08:39:13;18.43;;;7.97;;
13866;SDS011;7003;46.982;15.248;2023-03-01T08:41:47;11.83;;;7.67;;
13866;SDS011;7003;46.982;15.248;2023-03-01T08:44:16;14.13;;;9.60;;
13866;SDS011;7003;46.982;15.248;2023-03-01T08:46:46;12.63;;;7.40;;
13866;SDS011;7003;46.982;15.248;2023-03-01T08:49:18;11.77;;;8.83;;
13866;SDS011;7003;46.982;15.248;2023-03-01T08:51:48;11.07;;;7.07;;
13866;SDS011;7003;46.982;15.248;2023-03-01T08:54:20;11.07;;;7.53;;
13866;SDS011;7003;46.982;15.248;2023-03-01T08:56:51;14.03;;;9.80;;
13866;SDS011;7003;46.982;15.248;2023-03-01T08:59:23;11.17;;;7.40;;
13866;SDS011;7003;46.982;15.248;2023-03-01T09:01:56;9.70;;;7.97;;
13866;SDS011;7003;46.982;15.248;2023-03-01T09:04:25;10.37;;;7.53;;
13866;SDS011;7003;46.982;15.248;2023-03-01T09:06:54;13.60;;;8.47;;
13866;SDS011;7003;46.982;15.248;2023-03-01T09:09:22;11.90;;;8.20;;
13866;SDS011;7003;46.982;15.248;2023-03-01T09:11:53;12.63;;;7.57;;
13866;SDS011;7003;46.982;15.248;2023-03-01T09:14:22;13.00;;;8.77;;
13866;SDS011;7003;46.982;15.248;2023-03-01T09:16:53;11.47;;;8.10;;
13866;SDS011;7003;46.982;15.248;2023-03-01T09:19:22;16.20;;;7.33;;
13866;SDS011;7003;46.982;15.248;2023-03-01T09:21:51;9.37;;;7.13;;
13866;SDS011;7003;46.982;15.248;2023-03-01T09:24:22;13.93;;;9.53;;
13866;SDS011;7003;46.982;15.248;2023-03-01T09:26:57;11.40;;;8.10;;
13866;SDS011;7003;46.982;15.248;2023-03-01T09:29:26;9.30;;;7.37;;
13866;SDS011;7003;46.982;15.248;2023-03-01T09:31:54;12.97;;;8.03;;
13866;SDS011;7003;46.982;15.248;2023-03-01T09:34:26;13.40;;;8.27;;
13866;SDS011;7003;46.982;15.248;2023-03-01T09:36:56;10.17;;;7.57;;
13866;SDS011;7003;46.982;15.248;2023-03-01T09:39:28;10.00;;;7.80;;
13866;SDS011;7003;46.982;15.248;2023-03-01T09:42:00;14.50;;;7.77;;
13866;SDS011;7003;46.982;15.248;2023-03-01T09:44:35;10.20;;;8.87;;
13866;SDS011;7003;46.982;15.248;2023-03-01T09:47:11;11.93;;;8.70;;
13866;SDS011;7003;46.982;15.248;2023-03-01T09:49:51;9.83;;;7.97;;
13866;SDS011;7003;46.982;15.248;2023-03-01T09:52:29;14.40;;;7.53;;
13866;SDS011;7003;46.982;15.248;2023-03-01T09:55:10;9.83;;;6.87;;
13866;SDS011;7003;46.982;15.248;2023-03-01T09:57:45;10.80;;;7.60;;
13866;SDS011;7003;46.982;15.248;2023-03-01T10:00:26;11.43;;;7.33;;
13866;SDS011;7003;46.982;15.248;2023-03-01T10:03:02;12.23;;;7.73;;
13866;SDS011;7003;46.982;15.248;2023-03-01T10:05:44;9.33;;;8.20;;
13866;SDS011;7003;46.982;15.248;2023-03-01T10:08:28;15.67;;;8.53;;
13866;SDS011;7003;46.982;15.248;2023-03-01T10:11:02;11.90;;;7.33;;
13866;SDS011;7003;46.982;15.248;2023-03-01T10:13:37;9.10;;;7.77;;
13866;SDS011;7003;46.982;15.248;2023-03-01T10:16:21;8.63;;;6.60;;
13866;SDS011;7003;46.982;15.248;2023-03-01T10:18:58;9.10;;;7.20;;
13866;SDS011;7003;46.982;15.248;2023-03-01T10:21:30;11.20;;;9.17;;
13866;SDS011;7003;46.982;15.248;2023-03-01T10:24:12;13.73;;;9.43;;
13866;SDS011;7003;46.982;15.248;2023-03-01T10:26:47;13.67;;;8.93;;
13866;SDS011;7003;46.982;15.248;2023-03-01T10:29:23;10.43;;;7.17;;
13866;SDS011;7003;46.982;15.248;2023-03-01T10:31:59;9.03;;;7.30;;
13866;SDS011;7003;46.982;15.248;2023-03-01T10:34:29;9.43;;;8.07;;
13866;SDS011;7003;46.982;15.248;2023-03-01T10:37:04;9.40;;;7.83;;
13866;SDS011;7003;46.982;15.248;2023-03-01T10:39:54;9.63;;;7.30;;
13866;SDS011;7003;46.982;15.248;2023-03-01T10:42:35;11.50;;;8.87;;
13866;SDS011;7003;46.982;15.248;2023-03-01T10:45:22;15.43;;;8.83;;
13866;SDS011;7003;46.982;15.248;2023-03-01T10:48:04;9.87;;;7.67;;
13866;SDS011;7003;46.982;15.248;2023-03-01T10:50:41;12.50;;;8.97;;
13866;SDS011;7003;46.982;15.248;2023-03-01T10:53:23;11.90;;;7.13;;
13866;SDS011;7003;46.982;15.248;2023-03-01T10:56:01;9.97;;;7.00;;
13866;SDS011;7003;46.982;15.248;2023-03-01T10:58:33;21.53;;;12.57;;
13866;SDS011;7003;46.982;15.248;2023-03-01T11:01:05;18.20;;;11.97;;
13866;SDS011;7003;46.982;15.248;2023-03-01T11:04:03;17.87;;;9.70;;
13866;SDS011;7003;46.982;15.248;2023-03-01T11:06:42;17.13;;;7.07;;
13866;SDS011;7003;46.982;15.248;2023-03-01T11:09:30;9.93;;;8.03;;
13866;SDS011;7003;46.982;15.248;2023-03-01T11:12:12;13.47;;;7.83;;
13866;SDS011;7003;46.982;15.248;2023-03-01T11:14:46;18.03;;;7.97;;
13866;SDS011;7003;46.982;15.248;2023-03-01T11:17:21;11.87;;;6.43;;
13866;SDS011;7003;46.982;15.248;2023-03-01T11:20:01;11.63;;;7.67;;
13866;SDS011;7003;46.982;15.248;2023-03-01T11:22:34;13.30;;;8.73;;
13866;SDS011;7003;46.982;15.248;2023-03-01T11:25:04;11.20;;;8.90;;
13866;SDS011;7003;46.982;15.248;2023-03-01T11:27:44;11.83;;;9.83;;
13866;SDS011;7003;46.982;15.248;2023-03-01T11:30:20;12.27;;;8.90;;
13866;SDS011;7003;46.982;15.248;2023-03-01T11:32:57;13.97;;;7.40;;
13866;SDS011;7003;46.982;15.248;2023-03-01T11:35:47;9.50;;;8.03;;
13866;SDS011;7003;46.982;15.248;2023-03-01T11:38:26;12.50;;;8.80;;
13866;SDS011;7003;46.982;15.248;2023-03-01T11:40:59;13.07;;;8.00;;
13866;SDS011;7003;46.982;15.248;2023-03-01T11:43:47;12.30;;;8.73;;
13866;SDS011;7003;46.982;15.248;2023-03-01T11:46:32;13.50;;;9.07;;
13866;SDS011;7003;46.982;15.248;2023-03-01T11:52:21;14.93;;;8.13;;
13866;SDS011;7003;46.982;15.248;2023-03-01T11:55:07;12.90;;;8.90;;
13866;SDS011;7003;46.982;15.248;2023-03-01T11:57:54;13.80;;;9.57;;
13866;SDS011;7003;46.982;15.248;2023-03-01T12:00:45;11.00;;;7.67;;
13866;SDS011;7003;46.982;15.248;2023-03-01T12:03:38;11.50;;;7.53;;
13866;SDS011;7003;46.982;15.248;2023-03-01T12:06:36;14.47;;;9.47;;
13866;SDS011;7003;46.982;15.248;2023-03-01T12:09:21;12.60;;;8.57;;
13866;SDS011;7003;46.982;15.248;2023-03-01T12:12:18;11.60;;;8.23;;
13866;SDS011;7003;46.982;15.248;2023-03-01T12:15:11;12.50;;;8.00;;
13866;SDS011;7003;46.982;15.248;2023-03-01T12:18:02;15.87;;;7.30;;
13866;SDS011;7003;46.982;15.248;2023-03-01T12:20:46;12.70;;;9.07;;
13866;SDS011;7003;46.982;15.248;2023-03-01T12:23:30;16.80;;;10.87;;
13866;SDS011;7003;46.982;15.248;2023-03-01T12:26:26;10.37;;;8.00;;
13866;SDS011;7003;46.982;15.248;2023-03-01T12:32:09;11.73;;;8.13;;
13866;SDS011;7003;46.982;15.248;2023-03-01T12:37:57;12.13;;;7.90;;
13866;SDS011;7003;46.982;15.248;2023-03-01T12:40:42;17.27;;;11.07;;
13866;SDS011;7003;46.982;15.248;2023-03-01T12:43:30;18.00;;;9.37;;
13866;SDS011;7003;46.982;15.248;2023-03-01T12:46:13;13.40;;;8.10;;
13866;SDS011;7003;46.982;15.248;2023-03-01T12:48:56;19.53;;;9.80;;
13866;SDS011;7003;46.982;15.248;2023-03-01T12:51:37;16.27;;;10.00;;
13866;SDS011;7003;46.982;15.248;2023-03-01T12:54:13;9.67;;;6.97;;
13866;SDS011;7003;46.982;15.248;2023-03-01T12:56:49;16.43;;;6.77;;
13866;SDS011;7003;46.982;15.248;2023-03-01T12:59:23;13.97;;;8.03;;
13866;SDS011;7003;46.982;15.248;2023-03-01T13:02:05;15.07;;;8.50;;
13866;SDS011;7003;46.982;15.248;2023-03-01T13:04:54;13.10;;;8.40;;
13866;SDS011;7003;46.982;15.248;2023-03-01T13:07:35;13.47;;;8.37;;
13866;SDS011;7003;46.982;15.248;2023-03-01T13:10:16;14.83;;;8.60;;
13866;SDS011;7003;46.982;15.248;2023-03-01T13:13:00;11.30;;;7.10;;
13866;SDS011;7003;46.982;15.248;2023-03-01T13:15:42;16.93;;;8.70;;
13866;SDS011;7003;46.982;15.248;2023-03-01T13:18:32;12.70;;;7.77;;
13866;SDS011;7003;46.982;15.248;2023-03-01T13:21:03;10.23;;;6.63;;
13866;SDS011;7003;46.982;15.248;2023-03-01T13:23:37;10.10;;;7.67;;
13866;SDS011;7003;46.982;15.248;2023-03-01T13:26:12;9.97;;;6.47;;
13866;SDS011;7003;46.982;15.248;2023-03-01T13:28:50;9.03;;;6.03;;
13866;SDS011;7003;46.982;15.248;2023-03-01T13:34:42;14.17;;;7.83;;
13866;SDS011;7003;46.982;15.248;2023-03-01T13:43:28;8.53;;;6.97;;
13866;SDS011;7003;46.982;15.248;2023-03-01T13:46:02;8.27;;;6.20;;
13866;SDS011;7003;46.982;15.248;2023-03-01T13:48:37;9.87;;;6.70;;
13866;SDS011;7003;46.982;15.248;2023-03-01T13:51:10;8.00;;;5.40;;
13866;SDS011;7003;46.982;15.248;2023-03-01T13:53:40;13.30;;;8.60;;
13866;SDS011;7003;46.982;15.248;2023-03-01T13:56:14;9.17;;;7.03;;
13866;SDS011;7003;46.982;15.248;2023-03-01T13:58:49;12.53;;;8.97;;
13866;SDS011;7003;46.982;15.248;2023-03-01T14:01:28;18.07;;;12.23;;
13866;SDS011;7003;46.982;15.248;2023-03-01T14:04:00;11.80;;;8.07;;
13866;SDS011;7003;46.982;15.248;2023-03-01T14:06:34;15.53;;;8.30;;
13866;SDS011;7003;46.982;15.248;2023-03-01T14:09:05;9.23;;;7.37;;
13866;SDS011;7003;46.982;15.248;2023-03-01T14:11:56;10.50;;;6.33;;
13866;SDS011;7003;46.982;15.248;2023-03-01T14:14:39;9.77;;;6.23;;
13866;SDS011;7003;46.982;15.248;2023-03-01T14:17:29;9.53;;;6.23;;
13866;SDS011;7003;46.982;15.248;2023-03-01T14:20:19;6.27;;;5.00;;
13866;SDS011;7003;46.982;15.248;2023-03-01T14:22:56;8.23;;;6.23;;
13866;SDS011;7003;46.982;15.248;2023-03-01T14:25:29;8.70;;;5.70;;
13866;SDS011;7003;46.982;15.248;2023-03-01T14:28:12;7.83;;;5.17;;
13866;SDS011;7003;46.982;15.248;2023-03-01T14:30:48;10.93;;;6.53;;
13866;SDS011;7003;46.982;15.248;2023-03-01T14:33:21;9.40;;;5.97;;
13866;SDS011;7003;46.982;15.248;2023-03-01T14:35:56;17.03;;;7.30;;
13866;SDS011;7003;46.982;15.248;2023-03-01T14:38:34;9.03;;;6.60;;
13866;SDS011;7003;46.982;15.248;2023-03-01T14:41:06;8.57;;;5.70;;
13866;SDS011;7003;46.982;15.248;2023-03-01T14:43:41;7.57;;;6.63;;
13866;SDS011;7003;46.982;15.248;2023-03-01T14:46:17;9.90;;;4.73;;
13866;SDS011;7003;46.982;15.248;2023-03-01T14:48:49;7.10;;;4.50;;
13866;SDS011;7003;46.982;15.248;2023-03-01T14:51:22;11.77;;;5.90;;
13866;SDS011;7003;46.982;15.248;2023-03-01T14:53:57;7.07;;;5.13;;
13866;SDS011;7003;46.982;15.248;2023-03-01T14:56:28;4.70;;;3.97;;
13866;SDS011;7003;46.982;15.248;2023-03-01T14:59:12;6.10;;;5.00;;
13866;SDS011;7003;46.982;15.248;2023-03-01T15:01:42;8.60;;;5.43;;
13866;SDS011;7003;46.982;15.248;2023-03-01T15:04:13;9.70;;;5.10;;
13866;SDS011;7003;46.982;15.248;2023-03-01T15:06:47;5.90;;;5.13;;
13866;SDS011;7003;46.982;15.248;2023-03-01T15:09:22;5.27;;;4.07;;
13866;SDS011;7003;46.982;15.248;2023-03-01T15:11:55;6.57;;;4.83;;
13866;SDS011;7003;46.982;15.248;2023-03-01T15:14:25;7.27;;;4.83;;
13866;SDS011;7003;46.982;15.248;2023-03-01T15:17:20;6.40;;;3.70;;
13866;SDS011;7003;46.982;15.248;2023-03-01T15:19:54;8.93;;;5.03;;
13866;SDS011;7003;46.982;15.248;2023-03-01T15:22:25;7.60;;;4.50;;
13866;SDS011;7003;46.982;15.248;2023-03-01T15:24:56;6.73;;;4.37;;
13866;SDS011;7003;46.982;15.248;2023-03-01T15:27:26;8.23;;;4.77;;
13866;SDS011;7003;46.982;15.248;2023-03-01T15:29:57;16.60;;;7.73;;
13866;SDS011;7003;46.982;15.248;2023-03-01T15:32:29;7.97;;;6.37;;
13866;SDS011;7003;46.982;15.248;2023-03-01T15:35:00;6.37;;;4.13;;
13866;SDS011;7003;46.982;15.248;2023-03-01T15:37:49;6.60;;;4.63;;
13866;SDS011;7003;46.982;15.248;2023-03-01T15:40:20;9.80;;;5.93;;